createdAt,value
2022-08-02T00:01:21.745Z,8.98
2022-08-02T00:03:24.494Z,8.90
2022-08-02T00:05:26.388Z,8.70
2022-08-02T00:07:27.934Z,8.35
2022-08-02T00:09:29.698Z,8.50
2022-08-02T00:11:31.390Z,8.10
2022-08-02T00:13:33.012Z,8.60
2022-08-02T00:15:34.771Z,8.20
2022-08-02T00:17:36.592Z,8.52
2022-08-02T00:19:38.105Z,9.10
2022-08-02T00:21:39.778Z,8.98
2022-08-02T00:24:03.246Z,8.35
2022-08-02T00:26:02.902Z,9.40
2022-08-02T00:28:04.697Z,8.65
2022-08-02T00:30:06.512Z,8.98
2022-08-02T00:32:08.337Z,8.30
2022-08-02T00:34:28.658Z,9.70
2022-08-02T00:36:31.853Z,8.88
2022-08-02T00:38:33.358Z,9.18
2022-08-02T00:40:35.030Z,8.80
2022-08-02T00:42:36.748Z,8.40
2022-08-02T00:44:38.406Z,9.00
2022-08-02T00:46:40.227Z,8.50
2022-08-02T00:48:43.152Z,8.60
2022-08-02T00:50:44.859Z,8.20
2022-08-02T00:52:46.540Z,9.15
2022-08-02T00:54:48.062Z,9.05
2022-08-02T00:56:51.163Z,8.70
2022-08-02T00:58:53.014Z,9.57
2022-08-02T01:00:57.449Z,9.65
2022-08-02T01:02:58.998Z,9.00
2022-08-02T01:05:00.706Z,9.68
2022-08-02T01:07:11.978Z,9.25
2022-08-02T01:09:15.233Z,10.02
2022-08-02T01:11:16.970Z,9.98
2022-08-02T01:13:18.621Z,9.80
2022-08-02T01:15:20.466Z,10.13
2022-08-02T01:17:31.363Z,9.53
2022-08-02T01:19:36.632Z,9.00
2022-08-02T01:21:41.150Z,9.45
2022-08-02T01:24:02.201Z,9.45
2022-08-02T01:26:18.379Z,8.85
2022-08-02T01:28:25.766Z,9.43
2022-08-02T01:30:29.909Z,8.80
2022-08-02T01:32:34.190Z,9.20
2022-08-02T01:34:39.692Z,9.70
2022-08-02T01:36:48.293Z,9.52
2022-08-02T01:38:53.377Z,9.20
2022-08-02T01:40:56.454Z,9.18
2022-08-02T01:42:58.773Z,9.10
2022-08-02T01:45:02.277Z,9.47
2022-08-02T01:47:06.257Z,8.85
2022-08-02T01:49:12.315Z,8.70
2022-08-02T01:51:15.580Z,10.27
2022-08-02T01:53:18.805Z,9.30
2022-08-02T01:55:33.688Z,9.45
2022-08-02T01:57:51.223Z,9.75
2022-08-02T01:59:53.363Z,9.93
2022-08-02T02:01:55.967Z,10.48
2022-08-02T02:03:57.846Z,9.15
2022-08-02T02:06:00.004Z,8.88
2022-08-02T02:08:03.104Z,9.35
2022-08-02T02:12:13.496Z,8.90
2022-08-02T02:14:16.733Z,9.32
2022-08-02T02:16:19.449Z,9.18
2022-08-02T02:18:23.410Z,9.98
2022-08-02T02:20:25.506Z,9.27
2022-08-02T02:22:27.081Z,10.05
2022-08-02T02:24:29.497Z,9.10
2022-08-02T02:26:32.394Z,9.43
2022-08-02T02:28:35.284Z,9.40
2022-08-02T02:32:38.990Z,8.85
2022-08-02T02:34:42.722Z,9.80
2022-08-02T02:36:48.677Z,9.60
2022-08-02T02:38:51.556Z,9.52
2022-08-02T02:40:53.278Z,9.10
2022-08-02T02:42:55.166Z,9.38
2022-08-02T02:44:57.564Z,9.52
2022-08-02T02:47:00.360Z,9.30
2022-08-02T02:49:02.633Z,9.75
2022-08-02T02:51:05.678Z,9.68
2022-08-02T02:53:11.495Z,9.45
2022-08-02T02:55:13.526Z,10.05
2022-08-02T02:57:15.953Z,8.98
2022-08-02T02:59:18.025Z,11.20
2022-08-02T03:01:55.353Z,10.57
2022-08-02T03:03:52.073Z,10.68
2022-08-02T03:05:53.614Z,13.43
2022-08-02T03:07:55.201Z,13.70
2022-08-02T03:09:57.160Z,12.35
2022-08-02T03:11:58.834Z,12.00
2022-08-02T03:14:00.938Z,11.18
2022-08-02T03:16:03.436Z,14.70
2022-08-02T03:18:05.215Z,15.45
2022-08-02T03:20:08.910Z,15.20
2022-08-02T03:22:11.510Z,13.60
2022-08-02T03:24:13.368Z,13.85
2022-08-02T03:26:15.541Z,14.75
2022-08-02T03:28:17.314Z,16.75
2022-08-02T03:30:18.913Z,16.63
2022-08-02T03:32:20.948Z,17.30
2022-08-02T03:34:23.365Z,18.30
2022-08-02T03:36:26.461Z,20.30
2022-08-02T03:38:28.993Z,19.55
2022-08-02T03:40:31.470Z,19.13
2022-08-02T03:42:33.245Z,18.98
2022-08-02T03:44:35.852Z,17.15
2022-08-02T03:46:39.588Z,17.60
2022-08-02T03:48:41.775Z,17.75
2022-08-02T03:50:43.372Z,18.20
2022-08-02T03:52:45.509Z,18.02
2022-08-02T03:54:47.141Z,17.03
2022-08-02T03:56:48.787Z,16.70
2022-08-02T03:58:50.552Z,17.00
2022-08-02T04:00:53.088Z,15.45
2022-08-02T04:02:54.768Z,15.30
2022-08-02T04:04:56.545Z,14.80
2022-08-02T04:06:58.135Z,14.68
2022-08-02T04:09:01.458Z,14.27
2022-08-02T04:11:21.714Z,12.20
2022-08-02T04:13:31.250Z,12.13
2022-08-02T04:15:33.382Z,11.20
2022-08-02T04:17:37.256Z,11.45
2022-08-02T04:19:40.542Z,10.90
2022-08-02T04:21:51.782Z,10.15
2022-08-02T04:23:55.779Z,10.65
2022-08-02T04:25:59.946Z,11.00
2022-08-02T04:28:17.563Z,11.20
2022-08-02T04:30:20.453Z,11.32
2022-08-02T04:32:22.127Z,10.77
2022-08-02T04:34:23.819Z,9.82
2022-08-02T04:36:31.539Z,9.70
2022-08-02T04:38:33.644Z,10.75
2022-08-02T04:40:35.325Z,10.23
2022-08-02T04:42:37.364Z,9.73
2022-08-02T04:44:38.980Z,10.05
2022-08-02T04:46:41.077Z,9.65
2022-08-02T04:48:42.968Z,9.55
2022-08-02T04:50:44.534Z,9.70
2022-08-02T04:52:46.210Z,9.02
2022-08-02T04:54:47.986Z,9.98
2022-08-02T04:56:49.542Z,9.80
2022-08-02T04:58:51.151Z,9.95
2022-08-02T05:00:53.001Z,9.73
2022-08-02T05:02:58.083Z,10.20
2022-08-02T05:04:59.646Z,10.55
2022-08-02T05:07:01.393Z,9.65
2022-08-02T05:09:03.114Z,9.52
2022-08-02T05:11:04.718Z,9.63
2022-08-02T05:13:06.593Z,9.05
2022-08-02T05:15:12.605Z,8.23
2022-08-02T05:17:14.975Z,8.32
2022-08-02T05:19:16.716Z,8.55
2022-08-02T05:21:18.400Z,9.05
2022-08-02T05:23:20.093Z,8.07
2022-08-02T05:25:22.017Z,8.20
2022-08-02T05:27:23.663Z,7.50
2022-08-02T05:29:25.421Z,7.68
2022-08-02T05:31:27.206Z,7.65
2022-08-02T05:33:28.813Z,7.72
2022-08-02T05:35:30.528Z,7.10
2022-08-02T05:37:33.083Z,6.13
2022-08-02T05:39:37.044Z,6.43
2022-08-02T05:41:56.765Z,6.13
2022-08-02T05:43:58.583Z,6.43
2022-08-02T05:46:00.341Z,5.45
2022-08-02T05:50:06.118Z,5.13
2022-08-02T05:52:18.326Z,5.93
2022-08-02T05:54:23.505Z,5.60
2022-08-02T05:56:27.082Z,5.95
2022-08-02T05:58:40.353Z,4.95
2022-08-02T06:00:42.403Z,4.63
2022-08-02T06:02:44.163Z,5.07
2022-08-02T06:04:55.228Z,4.80
2022-08-02T06:07:02.609Z,4.45
2022-08-02T06:09:08.743Z,4.55
2022-08-02T06:11:12.811Z,4.65
2022-08-02T06:13:16.767Z,4.50
2022-08-02T06:15:19.377Z,4.63
2022-08-02T06:17:21.113Z,3.90
2022-08-02T06:19:22.895Z,4.28
2022-08-02T06:23:58.072Z,4.40
2022-08-02T06:26:00.627Z,4.13
2022-08-02T06:30:04.585Z,4.30
2022-08-02T06:32:07.201Z,4.28
2022-08-02T06:34:09.003Z,4.15
2022-08-02T06:36:16.413Z,4.45
2022-08-02T06:38:21.885Z,4.00
2022-08-02T06:40:26.795Z,4.30
2022-08-02T06:42:37.493Z,4.00
2022-08-02T06:44:47.929Z,3.45
2022-08-02T06:47:09.483Z,3.55
2022-08-02T06:49:13.436Z,3.72
2022-08-02T06:51:15.071Z,3.88
2022-08-02T06:55:19.000Z,3.65
2022-08-02T06:57:20.786Z,3.70
2022-08-02T06:59:24.620Z,3.42
2022-08-02T07:01:26.275Z,4.18
2022-08-02T07:03:40.710Z,3.55
2022-08-02T07:05:46.115Z,3.03
2022-08-02T07:07:47.878Z,3.00
2022-08-02T07:09:56.553Z,3.78
2022-08-02T07:12:02.987Z,3.40
2022-08-02T07:16:06.458Z,3.05
2022-08-02T07:18:14.918Z,2.97
2022-08-02T07:20:16.703Z,3.20
2022-08-02T07:24:43.393Z,2.50
2022-08-02T07:29:09.829Z,2.70
2022-08-02T07:31:11.689Z,2.55
2022-08-02T07:35:35.372Z,2.87
2022-08-02T07:37:55.002Z,3.00
2022-08-02T07:40:02.984Z,2.42
2022-08-02T07:42:08.492Z,2.20
2022-08-02T07:44:11.016Z,3.30
2022-08-02T07:46:12.923Z,2.80
2022-08-02T07:48:14.698Z,2.50
2022-08-02T07:50:18.351Z,2.35
2022-08-02T07:52:20.749Z,2.20
2022-08-02T07:56:58.795Z,2.40
2022-08-02T07:59:00.804Z,2.60
2022-08-02T08:03:06.359Z,1.98
2022-08-02T08:05:09.660Z,2.80
2022-08-02T08:07:11.946Z,2.33
2022-08-02T08:09:13.924Z,2.40
2022-08-02T08:11:15.557Z,2.20
2022-08-02T08:13:17.195Z,2.40
2022-08-02T08:15:19.117Z,3.10
2022-08-02T08:17:21.364Z,2.38
2022-08-02T08:21:47.722Z,2.80
2022-08-02T08:23:49.351Z,2.28
2022-08-02T08:25:50.939Z,2.70
2022-08-02T08:27:53.214Z,3.10
2022-08-02T08:29:54.899Z,2.53
2022-08-02T08:31:56.529Z,2.95
2022-08-02T08:33:58.387Z,3.30
2022-08-02T08:35:59.962Z,3.03
2022-08-02T08:38:07.474Z,2.97
2022-08-02T08:40:10.886Z,2.63
2022-08-02T08:43:21.020Z,2.63
2022-08-02T08:46:23.255Z,2.88
2022-08-02T08:48:30.536Z,2.92
2022-08-02T08:50:39.990Z,3.03
2022-08-02T08:52:42.416Z,3.08
2022-08-02T08:54:44.207Z,2.78
2022-08-02T08:56:52.019Z,2.92
2022-08-02T08:58:53.939Z,2.63
2022-08-02T09:00:55.699Z,2.80
2022-08-02T09:02:57.840Z,3.05
2022-08-02T09:04:59.764Z,3.50
2022-08-02T09:07:01.336Z,3.33
2022-08-02T09:09:03.247Z,3.13
2022-08-02T09:11:12.249Z,2.92
2022-08-02T09:13:38.625Z,2.95
2022-08-02T09:15:41.428Z,3.08
2022-08-02T09:17:53.268Z,2.90
2022-08-02T09:20:06.340Z,2.88
2022-08-02T09:22:11.370Z,3.75
2022-08-02T09:24:18.152Z,3.45
2022-08-02T09:26:21.241Z,3.28
2022-08-02T09:28:25.939Z,3.33
2022-08-02T09:30:27.563Z,3.85
2022-08-02T09:32:33.273Z,3.40
2022-08-02T09:34:45.176Z,3.20
2022-08-02T09:36:48.336Z,3.37
2022-08-02T09:38:56.329Z,3.25
2022-08-02T09:40:58.911Z,3.70
2022-08-02T09:43:00.530Z,3.90
2022-08-02T09:48:26.575Z,2.97
2022-08-02T09:50:28.672Z,3.55
2022-08-02T09:52:36.881Z,3.35
2022-08-02T09:54:44.822Z,3.40
2022-08-02T09:56:48.031Z,3.30
2022-08-02T09:58:52.777Z,3.28
2022-08-02T10:01:01.137Z,3.33
2022-08-02T10:03:07.856Z,3.75
2022-08-02T10:05:10.310Z,3.67
2022-08-02T10:07:15.040Z,3.42
2022-08-02T10:09:16.967Z,3.65
2022-08-02T10:11:19.338Z,3.47
2022-08-02T10:15:27.386Z,3.60
2022-08-02T10:17:29.622Z,3.45
2022-08-02T10:20:02.003Z,3.70
2022-08-02T10:21:58.350Z,3.97
2022-08-02T10:24:11.475Z,3.75
2022-08-02T10:26:18.052Z,3.63
2022-08-02T10:28:20.722Z,3.65
2022-08-02T10:30:24.500Z,3.70
2022-08-02T10:32:29.238Z,3.58
2022-08-02T10:34:33.005Z,3.60
2022-08-02T10:36:37.465Z,4.03
2022-08-02T10:38:39.783Z,3.55
2022-08-02T10:40:48.845Z,3.50
2022-08-02T10:42:51.805Z,3.53
2022-08-02T10:45:08.836Z,4.07
2022-08-02T10:47:25.904Z,4.25
2022-08-02T10:49:43.956Z,3.97
2022-08-02T10:51:54.802Z,4.85
2022-08-02T10:54:08.940Z,4.50
2022-08-02T10:56:11.712Z,3.92
2022-08-02T10:58:17.714Z,4.20
2022-08-02T11:00:22.659Z,4.30
2022-08-02T11:02:33.547Z,4.10
2022-08-02T11:04:41.412Z,3.92
2022-08-02T11:07:01.716Z,4.40
2022-08-02T11:09:21.945Z,4.10
2022-08-02T11:11:54.232Z,4.28
2022-08-02T11:14:08.912Z,3.92
2022-08-02T11:19:53.243Z,4.25
2022-08-02T11:22:04.071Z,4.20
2022-08-02T11:24:25.683Z,4.30
2022-08-02T11:27:01.898Z,4.25
2022-08-02T11:29:07.840Z,4.25
2022-08-02T11:31:17.799Z,5.00
2022-08-02T11:33:19.565Z,4.78
2022-08-02T11:35:22.038Z,4.63
2022-08-02T11:37:30.394Z,6.20
2022-08-02T11:39:32.328Z,5.43
2022-08-02T11:41:46.723Z,5.13
2022-08-02T11:43:56.170Z,4.60
2022-08-02T11:46:01.827Z,4.50
2022-08-02T11:48:04.058Z,4.70
2022-08-02T11:50:08.962Z,4.30
2022-08-02T11:52:11.272Z,3.92
2022-08-02T11:54:22.208Z,4.35
2022-08-02T11:56:27.622Z,4.10
2022-08-02T11:58:29.223Z,4.07
2022-08-02T12:00:31.309Z,3.97
2022-08-02T12:02:33.801Z,4.25
2022-08-02T12:04:35.580Z,4.85
2022-08-02T12:08:39.466Z,4.63
2022-08-02T12:10:48.219Z,5.50
2022-08-02T12:12:54.735Z,5.03
2022-08-02T12:14:56.322Z,4.78
2022-08-02T12:17:16.593Z,4.38
2022-08-02T12:19:19.147Z,4.03
2022-08-02T12:21:22.369Z,4.70
2022-08-02T12:23:24.584Z,4.90
2022-08-02T12:25:33.550Z,4.75
2022-08-02T12:27:41.532Z,4.72
2022-08-02T12:29:58.511Z,4.35
2022-08-02T12:32:01.794Z,5.00
2022-08-02T12:34:13.602Z,4.40
2022-08-02T12:36:23.311Z,4.43
2022-08-02T12:38:28.454Z,4.22
2022-08-02T12:40:31.728Z,4.38
2022-08-02T12:42:45.920Z,4.68
2022-08-02T12:44:52.030Z,4.55
2022-08-02T12:47:05.198Z,4.82
2022-08-02T12:49:19.917Z,4.30
2022-08-02T12:51:51.395Z,4.47
2022-08-02T12:54:11.163Z,4.85
2022-08-02T12:56:12.816Z,4.75
2022-08-02T12:58:14.844Z,4.90
2022-08-02T13:00:29.831Z,5.28
2022-08-02T13:02:31.707Z,6.20
2022-08-02T13:04:34.108Z,4.45
2022-08-02T13:06:44.803Z,5.03
2022-08-02T13:08:47.648Z,4.85
2022-08-02T13:10:49.495Z,3.83
2022-08-02T13:12:51.758Z,3.70
2022-08-02T13:14:56.966Z,3.83
2022-08-02T13:27:08.291Z,4.18
2022-08-02T13:29:15.784Z,4.00
2022-08-02T13:34:42.479Z,3.83
2022-08-02T13:36:53.935Z,3.70
2022-08-02T13:38:55.891Z,3.70
2022-08-02T13:41:12.438Z,3.70
2022-08-02T13:43:15.222Z,3.72
2022-08-02T13:45:20.771Z,4.00
2022-08-02T13:47:35.982Z,3.92
2022-08-02T14:11:26.799Z,3.95
2022-08-02T14:13:36.088Z,4.28
2022-08-02T14:15:38.945Z,4.20
2022-08-02T14:17:40.771Z,4.65
2022-08-02T14:21:48.399Z,4.20
2022-08-02T14:23:51.095Z,6.70
2022-08-02T14:25:54.403Z,4.05
2022-08-02T14:27:56.284Z,5.80
2022-08-02T14:29:58.225Z,5.13
2022-08-02T14:32:00.370Z,4.35
2022-08-02T14:34:03.476Z,4.40
2022-08-02T14:38:28.589Z,5.03
2022-08-02T14:48:49.538Z,4.75
2022-08-02T14:56:26.449Z,4.10
2022-08-02T15:05:04.134Z,4.13
2022-08-02T15:07:10.423Z,4.57
2022-08-02T15:09:13.499Z,4.50
2022-08-02T15:11:18.068Z,4.32
2022-08-02T15:13:19.892Z,4.00
2022-08-02T15:17:42.282Z,4.35
2022-08-02T15:19:57.432Z,4.40
2022-08-02T15:22:03.324Z,4.20
2022-08-02T15:24:08.045Z,3.95
2022-08-02T15:26:09.936Z,4.40
2022-08-02T15:28:11.788Z,4.47
2022-08-02T15:30:13.781Z,4.43
2022-08-02T15:32:18.427Z,5.03
2022-08-02T15:34:20.167Z,4.50
2022-08-02T15:36:22.632Z,4.00
2022-08-02T15:38:24.763Z,4.88
2022-08-02T15:40:26.438Z,6.07
2022-08-02T15:42:30.181Z,4.50
2022-08-02T15:44:33.088Z,4.97
2022-08-02T15:46:35.907Z,4.38
2022-08-02T15:48:37.672Z,4.30
2022-08-02T15:50:39.779Z,20.33
2022-08-02T15:52:41.790Z,7.00
2022-08-02T15:54:43.456Z,4.25
2022-08-02T15:56:46.331Z,4.05
2022-08-02T15:58:57.147Z,4.10
2022-08-02T16:01:05.094Z,4.10
2022-08-02T16:03:08.266Z,5.30
2022-08-02T16:05:14.207Z,4.30
2022-08-02T16:07:20.186Z,4.07
2022-08-02T16:09:23.681Z,4.43
2022-08-02T16:13:59.438Z,4.78
2022-08-02T16:16:03.552Z,4.38
2022-08-02T16:18:05.685Z,4.57
2022-08-02T16:20:09.057Z,5.00
2022-08-02T16:22:12.848Z,4.68
2022-08-02T16:24:15.681Z,4.20
2022-08-02T16:28:35.329Z,4.55
2022-08-02T16:30:37.722Z,4.70
2022-08-02T16:32:39.524Z,5.05
2022-08-02T16:35:06.900Z,4.60
2022-08-02T16:37:02.992Z,26.55
2022-08-02T16:39:05.106Z,13.02
2022-08-02T16:41:07.213Z,4.70
2022-08-02T16:43:09.354Z,6.57
2022-08-02T16:45:14.236Z,4.60
2022-08-02T16:47:16.453Z,4.80
2022-08-02T16:50:04.709Z,4.30
2022-08-02T16:51:40.702Z,13.60
2022-08-02T16:54:00.191Z,8.68
2022-08-02T16:56:03.571Z,5.43
2022-08-02T16:58:05.271Z,4.90
2022-08-02T17:00:16.224Z,4.53
2022-08-02T17:02:19.581Z,5.28
2022-08-02T17:04:23.525Z,4.80
2022-08-02T17:06:26.371Z,8.95
2022-08-02T17:08:31.712Z,9.18
2022-08-02T17:10:34.414Z,5.88
2022-08-02T17:12:37.098Z,5.50
2022-08-02T17:14:54.569Z,8.85
2022-08-02T17:16:58.301Z,12.23
2022-08-02T17:19:00.289Z,5.27
2022-08-02T17:21:04.143Z,6.22
2022-08-02T17:23:06.150Z,20.85
2022-08-02T17:25:11.176Z,6.93
2022-08-02T17:27:13.636Z,4.90
2022-08-02T17:29:18.237Z,11.50
2022-08-02T17:31:20.124Z,20.75
2022-08-02T17:33:31.160Z,14.02
2022-08-02T17:35:43.570Z,17.17
2022-08-02T17:38:00.077Z,11.05
2022-08-02T17:40:02.146Z,7.85
2022-08-02T17:42:06.491Z,14.70
2022-08-02T17:44:08.906Z,13.35
2022-08-02T17:46:23.216Z,8.32
2022-08-02T17:48:55.590Z,7.10
2022-08-02T17:52:14.855Z,17.80
2022-08-02T17:56:18.696Z,15.00
2022-08-02T17:58:53.823Z,10.18
2022-08-02T18:01:07.834Z,19.05
2022-08-02T18:03:30.020Z,13.07
2022-08-02T18:05:39.060Z,12.05
2022-08-02T18:07:50.113Z,10.48
2022-08-02T18:10:03.396Z,9.93
2022-08-02T18:12:08.454Z,10.23
2022-08-02T18:14:26.412Z,10.02
2022-08-02T18:16:30.332Z,20.42
2022-08-02T18:18:33.346Z,17.92
2022-08-02T18:20:35.936Z,15.77
2022-08-02T18:22:39.869Z,11.23
2022-08-02T18:24:45.034Z,9.77
2022-08-02T18:26:47.498Z,11.38
2022-08-02T18:28:49.807Z,9.35
2022-08-02T18:30:52.747Z,12.55
2022-08-02T18:33:57.832Z,10.77
2022-08-02T18:35:21.221Z,11.75
2022-08-02T18:37:43.857Z,10.07
2022-08-02T18:39:51.238Z,10.52
2022-08-02T18:41:56.230Z,13.57
2022-08-02T18:43:58.205Z,9.98
2022-08-02T18:46:05.502Z,10.20
2022-08-02T18:48:17.689Z,9.18
2022-08-02T18:50:20.146Z,9.82
2022-08-02T18:52:31.067Z,7.93
2022-08-02T18:54:34.191Z,9.00
2022-08-02T18:56:39.066Z,8.88
2022-08-02T18:58:43.278Z,9.18
2022-08-02T19:00:47.519Z,8.60
2022-08-02T19:02:56.202Z,7.93
2022-08-02T19:04:58.675Z,9.90
2022-08-02T19:07:07.154Z,8.73
2022-08-02T19:09:13.563Z,7.70
2022-08-02T19:11:16.633Z,8.10
2022-08-02T19:13:19.272Z,8.48
2022-08-02T19:15:24.191Z,8.30
2022-08-02T19:17:53.872Z,10.98
2022-08-02T19:19:52.159Z,9.40
2022-08-02T19:22:17.945Z,8.10
2022-08-02T19:24:21.504Z,7.65
2022-08-02T19:26:25.883Z,8.13
2022-08-02T19:28:27.923Z,9.40
2022-08-02T19:30:29.729Z,10.10
2022-08-02T19:34:55.953Z,10.40
2022-08-02T19:36:58.112Z,9.77
2022-08-02T19:39:00.754Z,9.77
2022-08-02T19:44:24.379Z,9.75
2022-08-02T19:46:05.171Z,9.25
2022-08-02T19:48:07.919Z,9.00
2022-08-02T19:50:12.696Z,9.02
2022-08-02T19:52:21.670Z,9.10
2022-08-02T19:54:35.849Z,8.90
2022-08-02T19:56:47.404Z,9.88
2022-08-02T19:58:53.585Z,9.52
2022-08-02T20:00:55.220Z,9.60
2022-08-02T20:03:00.001Z,8.93
2022-08-02T20:05:16.072Z,8.35
2022-08-02T20:07:54.741Z,9.05
2022-08-02T20:09:47.224Z,9.15
2022-08-02T20:11:54.221Z,8.60
2022-08-02T20:13:56.807Z,9.48
2022-08-02T20:15:59.244Z,11.50
2022-08-02T20:18:01.151Z,27.77
2022-08-02T20:20:03.709Z,47.53
2022-08-02T20:22:05.446Z,23.92
2022-08-02T20:24:11.828Z,12.85
2022-08-02T20:26:13.545Z,14.18
2022-08-02T20:28:15.942Z,40.73
2022-08-02T20:30:17.880Z,16.05
2022-08-02T20:32:23.605Z,11.00
2022-08-02T20:34:26.229Z,10.43
2022-08-02T20:36:29.311Z,10.73
2022-08-02T20:38:30.924Z,10.13
2022-08-02T20:40:32.904Z,11.30
2022-08-02T20:42:35.155Z,10.50
2022-08-02T20:44:36.835Z,9.95
2022-08-02T20:46:38.420Z,10.40
2022-08-02T20:48:40.324Z,10.27
2022-08-02T20:50:56.965Z,9.85
2022-08-02T20:53:00.701Z,10.85
2022-08-02T20:55:02.946Z,11.15
2022-08-02T20:57:04.895Z,10.32
2022-08-02T20:59:16.048Z,10.07
2022-08-02T21:01:18.122Z,10.68
2022-08-02T21:03:23.073Z,11.02
2022-08-02T21:05:26.839Z,10.63
2022-08-02T21:07:47.628Z,10.73
2022-08-02T21:09:53.544Z,10.82
2022-08-02T21:11:56.054Z,11.32
2022-08-02T21:14:07.541Z,11.67
2022-08-02T21:16:13.687Z,11.20
2022-08-02T21:18:27.835Z,11.18
2022-08-02T21:20:41.598Z,11.98
2022-08-02T21:22:44.615Z,11.95
2022-08-02T21:24:47.432Z,12.38
2022-08-02T21:26:57.882Z,12.25
2022-08-02T21:29:04.293Z,11.30
2022-08-02T21:31:07.113Z,12.20
2022-08-02T21:33:18.090Z,11.57
2022-08-02T21:35:25.359Z,12.07
2022-08-02T21:37:33.301Z,11.80
2022-08-02T21:39:49.795Z,12.45
2022-08-02T21:41:51.900Z,12.50
2022-08-02T21:43:53.499Z,12.07
2022-08-02T21:45:56.116Z,12.45
2022-08-02T21:47:57.855Z,12.35
2022-08-02T21:50:13.278Z,11.38
2022-08-02T21:52:19.563Z,11.88
2022-08-02T21:54:21.940Z,12.73
2022-08-02T21:56:23.666Z,12.55
2022-08-02T21:58:25.632Z,11.85
2022-08-02T22:02:31.257Z,12.05
2022-08-02T22:04:33.364Z,12.65
2022-08-02T22:06:35.032Z,11.63
2022-08-02T22:08:38.105Z,12.23
2022-08-02T22:10:58.535Z,12.07
2022-08-02T22:13:01.458Z,12.00
2022-08-02T22:15:05.290Z,11.60
2022-08-02T22:17:13.718Z,11.73
2022-08-02T22:19:15.506Z,12.45
2022-08-02T22:21:17.185Z,12.60
2022-08-02T22:23:22.581Z,12.55
2022-08-02T22:25:40.618Z,12.77
2022-08-02T22:28:11.809Z,12.70
2022-08-02T22:30:04.216Z,11.50
2022-08-02T22:32:07.354Z,12.93
2022-08-02T22:34:11.785Z,12.25
2022-08-02T22:36:43.128Z,12.20
2022-08-02T22:38:45.562Z,12.20
2022-08-02T22:40:47.788Z,12.17
2022-08-02T22:42:49.767Z,12.82
2022-08-02T22:44:51.335Z,12.20
2022-08-02T22:46:54.555Z,13.18
2022-08-02T22:48:57.075Z,12.00
2022-08-02T22:50:58.718Z,13.02
2022-08-02T22:53:00.639Z,12.55
2022-08-02T22:55:05.064Z,13.07
2022-08-02T22:57:11.296Z,13.15
2022-08-02T22:58:48.532Z,10.40
2022-08-02T23:01:17.743Z,12.48
2022-08-02T23:03:19.332Z,13.30
2022-08-02T23:05:21.858Z,11.95
2022-08-02T23:07:23.815Z,13.18
2022-08-02T23:09:25.370Z,13.57
2022-08-02T23:11:27.001Z,13.38
2022-08-02T23:13:28.858Z,13.18
2022-08-02T23:15:50.407Z,13.45
2022-08-02T23:18:10.745Z,13.45
2022-08-02T23:20:15.423Z,13.20
2022-08-02T23:22:19.482Z,13.15
2022-08-02T23:24:22.491Z,12.80
2022-08-02T23:26:24.380Z,13.70
2022-08-02T23:28:26.120Z,13.50
2022-08-02T23:30:27.688Z,12.98
2022-08-02T23:32:29.477Z,13.10
2022-08-02T23:34:31.063Z,13.00
2022-08-02T23:36:32.825Z,12.82
2022-08-02T23:38:34.577Z,14.32
2022-08-02T23:40:40.699Z,14.40
2022-08-02T23:42:43.019Z,13.68
2022-08-02T23:44:44.808Z,14.27
2022-08-02T23:46:47.046Z,13.02
2022-08-02T23:48:48.734Z,13.77
2022-08-02T23:50:50.534Z,13.38
2022-08-02T23:52:52.130Z,13.63
2022-08-02T23:54:53.686Z,12.93
2022-08-02T23:56:55.873Z,12.95
2022-08-02T23:58:57.461Z,13.02
